Phillips, WI

11:30 PM CST on December 25, 2014 (GMT -0600)
Price County | Change Station
CLOSE
Current Station
Airport
Location: Phillips,
Elevation: 1496 ft
Nearby Weather Stations

Elev 1496 ft 45.71 °N, 90.41 °W | Updated 15 minutes ago

Overcast
Overcast
29 °F
Feels Like 29 °F
N
0
Wind Variable Wind from North

Today
High -- | Low -- °F
--% Chance of Precip.
Yesterday
High -- | Low -- °F
Precip. -- in
7:41 AM 4:22 PM
Waxing Crescent, 22% visible
Pressure 29.88 in
Visibility 7.0 miles
Clouds Overcast 1500 ft
Dew Point 29 °F
Humidity 99%
Rainfall 0.07 in
Snow Depth Not available.
UV 0 out of 12
Pollen .10 out of 12
Air Quality Not available.
Flu Activity Not available.
METAR KPBH 260515Z AUTO 00000KT 7SM OVC015 M01/M02 A2988 RMK AO2 T10151016

More Conditions Fewer Conditions

Pressure 29.88 in
Visibility 7.0 miles
Clouds Overcast 1500 ft
Dew Point 29 °F
Humidity 99%
Rainfall 0.07 in
Snow Depth Not available.
UV 0 out of 12
Pollen .10 out of 12
Air Quality Not available.
Flu Activity Not available.
METAR KPBH 260515Z AUTO 00000KT 7SM OVC015 M01/M02 A2988 RMK AO2 T10151016

More Conditions Fewer Conditions

10-Day Weather Forecast

Almanac

Astronomy

Dec. 25, 2014 Rise Set
Actual Time
Civil Twilight
Nautical Twilight
Astronomical Twilight
Moon
Length of Visible Light
Length of Day
Tomorrow will be .
, % of the Moon is Illuminated

Today's Extremes

State Highs State Lows

Community

WunderPhotos

Upload Photos

1,780,549 photos uploaded!

WunderBlogs® & News

Nearby

Air Quality

  Air Quality AQ Index Pollutant
Not available.

Snow Depth

Station Depth Elevation

Earthquake Activity

City Distance Mag. Time & Date
Minimum magnitude displayed is 2.5.

Coastal Water Temperatures

Place Temperature

Nearby Weather Stations